DAL1426 KSGU-KLAX
Flight info
| Callsign | DAL1426 |
|---|---|
| Flight time | 0h 50m |
| Altitude | 36000 |
| Route | PHYLI2 PHYLI MMM LAKRR Q73 HAKMN ANJLL4 |
| Aircraft | B739/M-SDE2E3FGHIRWXY/LB1 |
Departure
| Time | 2026-05-06 21:36 |
|---|---|
| Airport | St George Regional Airport (KSGU) |
Arrival
| Time | 2026-05-06 22:27 |
|---|---|
| Airport | Los Angeles International Airport (KLAX) |
| Time | Latitude | Longitude | Altitude | Speed | Heading |
|---|---|---|---|---|---|
| 2026-05-06 21:09 | 37.03079 | -113.50984 | 2873 ft | 0 kts | 113° |
| 2026-05-06 21:26 | 37.03080 | -113.50986 | 2873 ft | 3 kts | 112° |
| 2026-05-06 21:26 | 37.03087 | -113.51017 | 2872 ft | 4 kts | 89° |
| 2026-05-06 21:26 | 37.03081 | -113.51047 | 2871 ft | 4 kts | 45° |
| 2026-05-06 21:27 | 37.03065 | -113.51058 | 2870 ft | 0 kts | 1° |
| 2026-05-06 21:29 | 37.03066 | -113.51058 | 2870 ft | 0 kts | 1° |
| 2026-05-06 21:29 | 37.03071 | -113.51058 | 2870 ft | 2 kts | 1° |
| 2026-05-06 21:29 | 37.03092 | -113.51058 | 2869 ft | 5 kts | 358° |
| 2026-05-06 21:29 | 37.03138 | -113.51059 | 2868 ft | 8 kts | 3° |
| 2026-05-06 21:30 | 37.03197 | -113.51041 | 2867 ft | 9 kts | 22° |
| 2026-05-06 21:30 | 37.03254 | -113.51011 | 2868 ft | 9 kts | 21° |
| 2026-05-06 21:30 | 37.03312 | -113.50981 | 2867 ft | 9 kts | 24° |
| 2026-05-06 21:30 | 37.03372 | -113.50949 | 2867 ft | 10 kts | 22° |
| 2026-05-06 21:31 | 37.03432 | -113.50917 | 2867 ft | 10 kts | 23° |
| 2026-05-06 21:31 | 37.03496 | -113.50883 | 2866 ft | 11 kts | 22° |
| 2026-05-06 21:31 | 37.03574 | -113.50843 | 2866 ft | 14 kts | 22° |
| 2026-05-06 21:31 | 37.03671 | -113.50793 | 2867 ft | 16 kts | 23° |
| 2026-05-06 21:32 | 37.03778 | -113.50734 | 2869 ft | 17 kts | 24° |
| 2026-05-06 21:32 | 37.04017 | -113.50610 | 2868 ft | 22 kts | 21° |
| 2026-05-06 21:32 | 37.04163 | -113.50532 | 2866 ft | 24 kts | 23° |
| 2026-05-06 21:33 | 37.04327 | -113.50445 | 2864 ft | 26 kts | 23° |
| 2026-05-06 21:33 | 37.04489 | -113.50360 | 2863 ft | 25 kts | 23° |
| 2026-05-06 21:33 | 37.04641 | -113.50279 | 2866 ft | 23 kts | 22° |
| 2026-05-06 21:33 | 37.04755 | -113.50263 | 2863 ft | 16 kts | 307° |
| 2026-05-06 21:34 | 37.04773 | -113.50307 | 2862 ft | 0 kts | 290° |
| 2026-05-06 21:34 | 37.04774 | -113.50310 | 2862 ft | 1 kts | 292° |
| 2026-05-06 21:34 | 37.04783 | -113.50340 | 2862 ft | 6 kts | 291° |
| 2026-05-06 21:34 | 37.04789 | -113.50400 | 2862 ft | 8 kts | 256° |
| 2026-05-06 21:35 | 37.04733 | -113.50455 | 2858 ft | 13 kts | 199° |
| 2026-05-06 21:35 | 37.04523 | -113.50565 | 2857 ft | 68 kts | 203° |
| 2026-05-06 21:35 | 37.03851 | -113.50920 | 2866 ft | 139 kts | 203° |
| 2026-05-06 21:35 | 37.02780 | -113.51490 | 2867 ft | 194 kts | 206° |
| 2026-05-06 21:36 | 37.01546 | -113.52244 | 3520 ft | 197 kts | 214° |
| 2026-05-06 21:36 | 37.00597 | -113.53452 | 4317 ft | 193 kts | 236° |
| 2026-05-06 21:36 | 36.99956 | -113.54891 | 4948 ft | 194 kts | 263° |
| 2026-05-06 21:36 | 36.99715 | -113.56624 | 5187 ft | 215 kts | 261° |
| 2026-05-06 21:37 | 36.99395 | -113.58552 | 5385 ft | 239 kts | 261° |
| 2026-05-06 21:37 | 36.99092 | -113.60669 | 5568 ft | 263 kts | 265° |
| 2026-05-06 21:37 | 36.98820 | -113.63027 | 5981 ft | 279 kts | 265° |
| 2026-05-06 21:37 | 36.98546 | -113.65450 | 6764 ft | 282 kts | 264° |
| 2026-05-06 21:38 | 36.98265 | -113.67864 | 7556 ft | 283 kts | 264° |
| 2026-05-06 21:38 | 36.97975 | -113.70309 | 8342 ft | 283 kts | 264° |
| 2026-05-06 21:38 | 36.97681 | -113.72780 | 9029 ft | 290 kts | 265° |
| 2026-05-06 21:38 | 36.97382 | -113.75295 | 9750 ft | 295 kts | 265° |
| 2026-05-06 21:39 | 36.97070 | -113.77857 | 10352 ft | 305 kts | 265° |
| 2026-05-06 21:39 | 36.96745 | -113.80583 | 10504 ft | 328 kts | 265° |
| 2026-05-06 21:39 | 36.96396 | -113.83456 | 10855 ft | 344 kts | 265° |
| 2026-05-06 21:39 | 36.95748 | -113.86379 | 11410 ft | 357 kts | 245° |
| 2026-05-06 21:40 | 36.94171 | -113.88831 | 12006 ft | 370 kts | 220° |
| 2026-05-06 21:40 | 36.92027 | -113.90637 | 12664 ft | 375 kts | 214° |
| 2026-05-06 21:40 | 36.89821 | -113.92441 | 13266 ft | 381 kts | 214° |
| 2026-05-06 21:40 | 36.87590 | -113.94283 | 13859 ft | 387 kts | 215° |
| 2026-05-06 21:41 | 36.85333 | -113.96162 | 14462 ft | 390 kts | 215° |
| 2026-05-06 21:41 | 36.83081 | -113.98049 | 15189 ft | 390 kts | 215° |
| 2026-05-06 21:41 | 36.80854 | -113.99927 | 15846 ft | 392 kts | 215° |
| 2026-05-06 21:41 | 36.78589 | -114.01841 | 16466 ft | 395 kts | 215° |
| 2026-05-06 21:42 | 36.76306 | -114.03773 | 17087 ft | 398 kts | 215° |
| 2026-05-06 21:42 | 36.74001 | -114.05723 | 17704 ft | 401 kts | 215° |
| 2026-05-06 21:42 | 36.71689 | -114.07678 | 18307 ft | 404 kts | 215° |
| 2026-05-06 21:42 | 36.69356 | -114.09651 | 18888 ft | 405 kts | 215° |
| 2026-05-06 21:43 | 36.67011 | -114.11632 | 19404 ft | 409 kts | 215° |
| 2026-05-06 21:43 | 36.64640 | -114.13634 | 19880 ft | 414 kts | 215° |
| 2026-05-06 21:43 | 36.62243 | -114.15656 | 20383 ft | 418 kts | 215° |
| 2026-05-06 21:43 | 36.59826 | -114.17694 | 20900 ft | 421 kts | 215° |
| 2026-05-06 21:44 | 36.57386 | -114.19748 | 21383 ft | 425 kts | 215° |
| 2026-05-06 21:44 | 36.54920 | -114.21823 | 21885 ft | 429 kts | 215° |
| 2026-05-06 21:44 | 36.52440 | -114.23908 | 22378 ft | 432 kts | 215° |
| 2026-05-06 21:44 | 36.49939 | -114.26010 | 22834 ft | 436 kts | 215° |
| 2026-05-06 21:45 | 36.47441 | -114.28106 | 23288 ft | 440 kts | 215° |
| 2026-05-06 21:45 | 36.44894 | -114.30244 | 23708 ft | 444 kts | 215° |
| 2026-05-06 21:45 | 36.42326 | -114.32396 | 24104 ft | 447 kts | 215° |
| 2026-05-06 21:45 | 36.39754 | -114.34550 | 24516 ft | 449 kts | 215° |
| 2026-05-06 21:46 | 36.37153 | -114.36726 | 24915 ft | 452 kts | 215° |
| 2026-05-06 21:46 | 36.34534 | -114.38916 | 25293 ft | 456 kts | 214° |
| 2026-05-06 21:46 | 36.31889 | -114.41125 | 25647 ft | 460 kts | 214° |
| 2026-05-06 21:46 | 36.29228 | -114.43346 | 26030 ft | 463 kts | 214° |
| 2026-05-06 21:47 | 36.26549 | -114.45580 | 26429 ft | 465 kts | 214° |
| 2026-05-06 21:47 | 36.23852 | -114.47828 | 26810 ft | 468 kts | 214° |
| 2026-05-06 21:47 | 36.21140 | -114.50086 | 27177 ft | 471 kts | 214° |
| 2026-05-06 21:47 | 36.18408 | -114.52359 | 27517 ft | 474 kts | 214° |
| 2026-05-06 21:48 | 36.15695 | -114.54613 | 27884 ft | 477 kts | 214° |
| 2026-05-06 21:48 | 36.12923 | -114.56909 | 28254 ft | 480 kts | 214° |
| 2026-05-06 21:48 | 36.10145 | -114.59210 | 28620 ft | 483 kts | 214° |
| 2026-05-06 21:48 | 36.07364 | -114.61518 | 28967 ft | 486 kts | 214° |
| 2026-05-06 21:49 | 36.05489 | -114.63074 | 29202 ft | 488 kts | 214° |
| 2026-05-06 21:49 | 36.02664 | -114.65416 | 29560 ft | 490 kts | 214° |
| 2026-05-06 21:49 | 35.99828 | -114.67764 | 29959 ft | 492 kts | 213° |
| 2026-05-06 21:49 | 35.96981 | -114.70117 | 30175 ft | 496 kts | 213° |
| 2026-05-06 21:50 | 35.91206 | -114.74882 | 30097 ft | 497 kts | 213° |
| 2026-05-06 21:50 | 35.85518 | -114.79565 | 30067 ft | 491 kts | 213° |
| 2026-05-06 21:51 | 35.79813 | -114.84256 | 30077 ft | 492 kts | 213° |
| 2026-05-06 21:51 | 35.74107 | -114.88941 | 30090 ft | 494 kts | 213° |
| 2026-05-06 21:52 | 35.68483 | -114.93552 | 30032 ft | 472 kts | 213° |
| 2026-05-06 21:52 | 35.63114 | -114.97946 | 30033 ft | 461 kts | 213° |
| 2026-05-06 21:53 | 35.57754 | -115.02326 | 30031 ft | 463 kts | 213° |
| 2026-05-06 21:53 | 35.52378 | -115.06712 | 30034 ft | 464 kts | 213° |
| 2026-05-06 21:54 | 35.47504 | -115.11857 | 30048 ft | 463 kts | 228° |
| 2026-05-06 21:54 | 35.43209 | -115.17683 | 30051 ft | 464 kts | 229° |
| 2026-05-06 21:55 | 35.38865 | -115.23539 | 30047 ft | 464 kts | 228° |
| 2026-05-06 21:55 | 35.34460 | -115.29319 | 30053 ft | 464 kts | 227° |
| 2026-05-06 21:56 | 35.30030 | -115.35066 | 30035 ft | 463 kts | 227° |
| 2026-05-06 21:56 | 35.25603 | -115.40801 | 30055 ft | 463 kts | 227° |
| 2026-05-06 21:57 | 35.21190 | -115.46514 | 30046 ft | 462 kts | 227° |
| 2026-05-06 21:57 | 35.16777 | -115.52220 | 30054 ft | 461 kts | 227° |
| 2026-05-06 21:58 | 35.12369 | -115.57909 | 30072 ft | 460 kts | 227° |
| 2026-05-06 21:58 | 35.07951 | -115.63572 | 30053 ft | 460 kts | 226° |
| 2026-05-06 21:59 | 35.03530 | -115.69214 | 30050 ft | 460 kts | 227° |
| 2026-05-06 21:59 | 34.99105 | -115.74857 | 30057 ft | 460 kts | 227° |
| 2026-05-06 22:00 | 34.94684 | -115.80490 | 30058 ft | 460 kts | 227° |
| 2026-05-06 22:00 | 34.90280 | -115.86091 | 30048 ft | 461 kts | 226° |
| 2026-05-06 22:01 | 34.85836 | -115.91736 | 30040 ft | 462 kts | 226° |
| 2026-05-06 22:01 | 34.81378 | -115.97390 | 30025 ft | 463 kts | 227° |
| 2026-05-06 22:02 | 34.76904 | -116.03055 | 30025 ft | 464 kts | 226° |
| 2026-05-06 22:02 | 34.72439 | -116.08732 | 30019 ft | 464 kts | 227° |
| 2026-05-06 22:03 | 34.67977 | -116.14418 | 30026 ft | 464 kts | 227° |
| 2026-05-06 22:03 | 34.63525 | -116.20082 | 30032 ft | 464 kts | 227° |
| 2026-05-06 22:04 | 34.59125 | -116.25669 | 30000 ft | 447 kts | 226° |
| 2026-05-06 22:04 | 34.57020 | -116.28332 | 29775 ft | 440 kts | 227° |
| 2026-05-06 22:04 | 34.54917 | -116.30993 | 29434 ft | 434 kts | 227° |
| 2026-05-06 22:05 | 34.52836 | -116.33624 | 29012 ft | 430 kts | 227° |
| 2026-05-06 22:05 | 34.50773 | -116.36233 | 28585 ft | 426 kts | 227° |
| 2026-05-06 22:05 | 34.48728 | -116.38818 | 28149 ft | 423 kts | 227° |
| 2026-05-06 22:05 | 34.46699 | -116.41380 | 27746 ft | 420 kts | 227° |
| 2026-05-06 22:06 | 34.44679 | -116.43930 | 27317 ft | 417 kts | 227° |
| 2026-05-06 22:06 | 34.42674 | -116.46457 | 26908 ft | 415 kts | 227° |
| 2026-05-06 22:06 | 34.40931 | -116.49199 | 26453 ft | 409 kts | 246° |
| 2026-05-06 22:06 | 34.39715 | -116.52271 | 26151 ft | 403 kts | 247° |
| 2026-05-06 22:07 | 34.38495 | -116.55370 | 25714 ft | 415 kts | 246° |
| 2026-05-06 22:07 | 34.37199 | -116.58602 | 25281 ft | 438 kts | 246° |
| 2026-05-06 22:07 | 34.35838 | -116.61927 | 24823 ft | 442 kts | 246° |
| 2026-05-06 22:07 | 34.34484 | -116.65202 | 24393 ft | 440 kts | 246° |
| 2026-05-06 22:08 | 34.33114 | -116.68512 | 23924 ft | 439 kts | 246° |
| 2026-05-06 22:08 | 34.31767 | -116.71827 | 23391 ft | 438 kts | 246° |
| 2026-05-06 22:08 | 34.30436 | -116.75141 | 22860 ft | 435 kts | 246° |
| 2026-05-06 22:08 | 34.29123 | -116.78422 | 22345 ft | 431 kts | 246° |
| 2026-05-06 22:09 | 34.27820 | -116.81671 | 21854 ft | 427 kts | 246° |
| 2026-05-06 22:09 | 34.26534 | -116.84870 | 21377 ft | 417 kts | 246° |
| 2026-05-06 22:09 | 34.25280 | -116.87978 | 20914 ft | 406 kts | 246° |
| 2026-05-06 22:09 | 34.24058 | -116.91005 | 20474 ft | 395 kts | 246° |
| 2026-05-06 22:10 | 34.22865 | -116.93956 | 20055 ft | 386 kts | 246° |
| 2026-05-06 22:10 | 34.21698 | -116.96840 | 19633 ft | 378 kts | 246° |
| 2026-05-06 22:10 | 34.20616 | -116.99695 | 19209 ft | 369 kts | 252° |
| 2026-05-06 22:10 | 34.19817 | -117.02572 | 18822 ft | 360 kts | 257° |
| 2026-05-06 22:11 | 34.19111 | -117.05443 | 18419 ft | 353 kts | 257° |
| 2026-05-06 22:11 | 34.18402 | -117.08235 | 17959 ft | 348 kts | 256° |
| 2026-05-06 22:11 | 34.17669 | -117.11004 | 17495 ft | 343 kts | 255° |
| 2026-05-06 22:11 | 34.16937 | -117.13723 | 17124 ft | 340 kts | 255° |
| 2026-05-06 22:12 | 34.16213 | -117.16403 | 16774 ft | 341 kts | 255° |
| 2026-05-06 22:12 | 34.15465 | -117.19133 | 16405 ft | 342 kts | 255° |
| 2026-05-06 22:12 | 34.14717 | -117.21854 | 16042 ft | 341 kts | 254° |
| 2026-05-06 22:12 | 34.13970 | -117.24559 | 15688 ft | 339 kts | 254° |
| 2026-05-06 22:13 | 34.13236 | -117.27217 | 15335 ft | 337 kts | 254° |
| 2026-05-06 22:13 | 34.12494 | -117.29908 | 14968 ft | 337 kts | 254° |
| 2026-05-06 22:13 | 34.11750 | -117.32603 | 14575 ft | 338 kts | 254° |
| 2026-05-06 22:13 | 34.11007 | -117.35293 | 14214 ft | 335 kts | 254° |
| 2026-05-06 22:14 | 34.10285 | -117.37934 | 13819 ft | 328 kts | 255° |
| 2026-05-06 22:14 | 34.09627 | -117.40544 | 13369 ft | 322 kts | 256° |
| 2026-05-06 22:14 | 34.09003 | -117.43081 | 12950 ft | 316 kts | 256° |
| 2026-05-06 22:14 | 34.08376 | -117.45610 | 12587 ft | 313 kts | 256° |
| 2026-05-06 22:15 | 34.07748 | -117.48123 | 12201 ft | 314 kts | 255° |
| 2026-05-06 22:15 | 34.07130 | -117.50650 | 11838 ft | 313 kts | 259° |
| 2026-05-06 22:15 | 34.06693 | -117.53199 | 11494 ft | 308 kts | 263° |
| 2026-05-06 22:15 | 34.06343 | -117.55723 | 11182 ft | 302 kts | 264° |
| 2026-05-06 22:16 | 34.06010 | -117.58206 | 10882 ft | 298 kts | 264° |
| 2026-05-06 22:16 | 34.05674 | -117.60670 | 10589 ft | 298 kts | 264° |
| 2026-05-06 22:16 | 34.05330 | -117.63138 | 10300 ft | 300 kts | 263° |
| 2026-05-06 22:16 | 34.04799 | -117.65568 | 10088 ft | 299 kts | 244° |
| 2026-05-06 22:17 | 34.03742 | -117.67719 | 10148 ft | 300 kts | 243° |
| 2026-05-06 22:17 | 34.02852 | -117.69969 | 9993 ft | 292 kts | 250° |
| 2026-05-06 22:17 | 34.02154 | -117.72238 | 9602 ft | 288 kts | 260° |
| 2026-05-06 22:17 | 34.01782 | -117.74593 | 9319 ft | 286 kts | 265° |
| 2026-05-06 22:18 | 34.01519 | -117.76967 | 8985 ft | 291 kts | 266° |
| 2026-05-06 22:18 | 34.01277 | -117.79404 | 8648 ft | 293 kts | 266° |
| 2026-05-06 22:18 | 34.01044 | -117.81807 | 8323 ft | 292 kts | 266° |
| 2026-05-06 22:18 | 34.00801 | -117.84234 | 7985 ft | 291 kts | 266° |
| 2026-05-06 22:19 | 34.00565 | -117.86645 | 7663 ft | 290 kts | 266° |
| 2026-05-06 22:19 | 34.00330 | -117.89053 | 7334 ft | 289 kts | 267° |
| 2026-05-06 22:19 | 34.00095 | -117.91456 | 7013 ft | 288 kts | 267° |
| 2026-05-06 22:19 | 33.99862 | -117.93854 | 6692 ft | 287 kts | 265° |
| 2026-05-06 22:20 | 33.99629 | -117.96238 | 6361 ft | 284 kts | 267° |
| 2026-05-06 22:20 | 33.99398 | -117.98571 | 6128 ft | 273 kts | 265° |
| 2026-05-06 22:20 | 33.99179 | -118.00762 | 6021 ft | 254 kts | 267° |
| 2026-05-06 22:20 | 33.99063 | -118.02800 | 5874 ft | 235 kts | 269° |
| 2026-05-06 22:21 | 33.98908 | -118.04703 | 5754 ft | 221 kts | 265° |
| 2026-05-06 22:21 | 33.98715 | -118.06479 | 5522 ft | 212 kts | 265° |
| 2026-05-06 22:21 | 33.98526 | -118.08237 | 5262 ft | 212 kts | 264° |
| 2026-05-06 22:21 | 33.98343 | -118.09999 | 4999 ft | 214 kts | 265° |
| 2026-05-06 22:22 | 33.98155 | -118.11784 | 4716 ft | 215 kts | 265° |
| 2026-05-06 22:22 | 33.97967 | -118.13571 | 4443 ft | 214 kts | 265° |
| 2026-05-06 22:22 | 33.97782 | -118.15355 | 4145 ft | 214 kts | 264° |
| 2026-05-06 22:22 | 33.97597 | -118.17117 | 3872 ft | 210 kts | 265° |
| 2026-05-06 22:23 | 33.97415 | -118.18851 | 3599 ft | 206 kts | 265° |
| 2026-05-06 22:23 | 33.97239 | -118.20545 | 3329 ft | 202 kts | 264° |
| 2026-05-06 22:23 | 33.97067 | -118.22201 | 3071 ft | 201 kts | 263° |
| 2026-05-06 22:23 | 33.96895 | -118.23857 | 2808 ft | 197 kts | 263° |
| 2026-05-06 22:24 | 33.96727 | -118.25477 | 2536 ft | 193 kts | 262° |
| 2026-05-06 22:24 | 33.96562 | -118.27055 | 2289 ft | 190 kts | 262° |
| 2026-05-06 22:24 | 33.96401 | -118.28618 | 2069 ft | 186 kts | 262° |
| 2026-05-06 22:24 | 33.96241 | -118.30173 | 1796 ft | 185 kts | 262° |
| 2026-05-06 22:25 | 33.96083 | -118.31697 | 1555 ft | 183 kts | 262° |
| 2026-05-06 22:25 | 33.95935 | -118.33207 | 1412 ft | 186 kts | 261° |
| 2026-05-06 22:25 | 33.95778 | -118.34777 | 1316 ft | 182 kts | 262° |
| 2026-05-06 22:25 | 33.95611 | -118.36253 | 1072 ft | 182 kts | 262° |
| 2026-05-06 22:26 | 33.95473 | -118.37797 | 771 ft | 180 kts | 263° |
| 2026-05-06 22:26 | 33.95329 | -118.39235 | 393 ft | 169 kts | 257° |
| 2026-05-06 22:26 | 33.95160 | -118.40582 | 129 ft | 153 kts | 267° |
| 2026-05-06 22:26 | 33.95079 | -118.41527 | 125 ft | 51 kts | 261° |
| 2026-05-06 22:27 | 33.95032 | -118.41746 | 123 ft | 21 kts | 247° |
| 2026-05-06 22:27 | 33.94984 | -118.41854 | 123 ft | 14 kts | 238° |
| 2026-05-06 22:27 | 33.94940 | -118.41923 | 123 ft | 7 kts | 232° |
| 2026-05-06 22:27 | 33.94934 | -118.41933 | 125 ft | 0 kts | 234° |
| 2026-05-06 22:28 | 33.94931 | -118.41938 | 125 ft | 1 kts | 233° |
| 2026-05-06 22:28 | 33.94922 | -118.41952 | 125 ft | 3 kts | 233° |
| 2026-05-06 22:28 | 33.94909 | -118.41974 | 124 ft | 4 kts | 232° |
| 2026-05-06 22:28 | 33.94890 | -118.42003 | 125 ft | 5 kts | 233° |
| 2026-05-06 22:29 | 33.94865 | -118.42045 | 125 ft | 8 kts | 235° |
| 2026-05-06 22:29 | 33.94822 | -118.42112 | 124 ft | 12 kts | 230° |
| 2026-05-06 22:29 | 33.94762 | -118.42206 | 124 ft | 15 kts | 233° |
| 2026-05-06 22:29 | 33.94702 | -118.42226 | 123 ft | 11 kts | 141° |
| 2026-05-06 22:30 | 33.94696 | -118.42115 | 125 ft | 16 kts | 79° |
| 2026-05-06 22:30 | 33.94710 | -118.41963 | 125 ft | 19 kts | 85° |
| 2026-05-06 22:30 | 33.94726 | -118.41816 | 125 ft | 17 kts | 83° |
| 2026-05-06 22:30 | 33.94740 | -118.41688 | 125 ft | 16 kts | 84° |
| 2026-05-06 22:31 | 33.94752 | -118.41555 | 125 ft | 17 kts | 83° |
| 2026-05-06 22:31 | 33.94773 | -118.41417 | 125 ft | 10 kts | 73° |
| 2026-05-06 22:31 | 33.94784 | -118.41365 | 125 ft | 7 kts | 76° |
| 2026-05-06 22:31 | 33.94792 | -118.41293 | 125 ft | 10 kts | 89° |
| 2026-05-06 22:32 | 33.94805 | -118.41202 | 122 ft | 12 kts | 74° |
| 2026-05-06 22:32 | 33.94804 | -118.41113 | 125 ft | 10 kts | 104° |
| 2026-05-06 22:32 | 33.94803 | -118.41101 | 120 ft | 2 kts | 92° |
| 2026-05-06 22:32 | 33.94806 | -118.41076 | 125 ft | 4 kts | 66° |
| 2026-05-06 22:33 | 33.94820 | -118.41034 | 121 ft | 7 kts | 77° |
| 2026-05-06 22:33 | 33.94827 | -118.40968 | 125 ft | 9 kts | 84° |
| 2026-05-06 22:33 | 33.94809 | -118.40891 | 120 ft | 11 kts | 152° |
| 2026-05-06 22:33 | 33.94771 | -118.40833 | 122 ft | 9 kts | 95° |
| 2026-05-06 22:34 | 33.94751 | -118.40787 | 122 ft | 4 kts | 176° |
| 2026-05-06 22:34 | 33.94715 | -118.40783 | 123 ft | 6 kts | 174° |
| 2026-05-06 22:34 | 33.94703 | -118.40782 | 122 ft | 0 kts | 173° |